createdAt,value
2018-07-07T00:00:12.837Z,978.38
2018-07-07T00:01:12.878Z,978.41
2018-07-07T00:02:12.830Z,978.42
2018-07-07T00:03:12.828Z,978.39
2018-07-07T00:04:12.824Z,978.45
2018-07-07T00:05:12.818Z,978.38
2018-07-07T00:06:12.842Z,978.40
2018-07-07T00:07:12.813Z,978.39
2018-07-07T00:08:12.812Z,978.39
2018-07-07T00:09:12.805Z,978.37
2018-07-07T00:10:12.802Z,978.35
2018-07-07T00:11:12.796Z,978.34
2018-07-07T00:12:12.802Z,978.32
2018-07-07T00:13:12.795Z,978.33
2018-07-07T00:14:12.785Z,978.38
2018-07-07T00:15:12.787Z,978.35
2018-07-07T00:16:12.809Z,978.41
2018-07-07T00:17:12.775Z,978.39
2018-07-07T00:18:12.780Z,978.40
2018-07-07T00:19:12.769Z,978.43
2018-07-07T00:20:12.765Z,978.41
2018-07-07T00:21:12.765Z,978.41
2018-07-07T00:22:12.759Z,978.40
2018-07-07T00:23:12.758Z,978.40
2018-07-07T00:24:12.750Z,978.41
2018-07-07T00:25:12.756Z,978.41
2018-07-07T00:26:12.745Z,978.37
2018-07-07T00:27:12.778Z,978.35
2018-07-07T00:28:12.745Z,978.38
2018-07-07T00:29:12.737Z,978.33
2018-07-07T00:30:12.741Z,978.34
2018-07-07T00:31:12.730Z,978.36
2018-07-07T00:32:12.722Z,978.35
2018-07-07T00:33:12.723Z,978.34
2018-07-07T00:34:12.716Z,978.33
2018-07-07T00:35:12.711Z,978.36
2018-07-07T00:36:12.706Z,978.34
2018-07-07T00:37:12.703Z,978.34
2018-07-07T00:38:12.706Z,978.33
2018-07-07T00:39:12.698Z,978.34
2018-07-07T00:40:12.700Z,978.30
2018-07-07T00:41:12.697Z,978.27
2018-07-07T00:42:12.695Z,978.25
2018-07-07T00:43:12.693Z,978.25
2018-07-07T00:44:12.679Z,978.26
2018-07-07T00:45:12.675Z,978.22
2018-07-07T00:46:12.672Z,978.18
2018-07-07T00:47:12.669Z,978.19
2018-07-07T00:48:12.665Z,978.18
2018-07-07T00:49:12.661Z,978.18
2018-07-07T00:50:12.656Z,978.16
2018-07-07T00:51:12.654Z,978.15
2018-07-07T00:52:12.654Z,978.12
2018-07-07T00:53:12.662Z,978.19
2018-07-07T00:54:12.656Z,978.16
2018-07-07T00:55:12.638Z,978.18
2018-07-07T00:56:12.644Z,978.21
2018-07-07T00:57:12.630Z,978.20
2018-07-07T00:58:12.629Z,978.21
2018-07-07T00:59:12.625Z,978.20
2018-07-07T01:00:12.625Z,978.20
2018-07-07T01:01:12.623Z,978.19
2018-07-07T01:02:12.620Z,978.20
2018-07-07T01:03:12.626Z,978.20
2018-07-07T01:04:12.609Z,978.18
2018-07-07T01:05:12.601Z,978.18
2018-07-07T01:06:12.601Z,978.21
2018-07-07T01:07:12.593Z,978.21
2018-07-07T01:08:12.599Z,978.23
2018-07-07T01:09:12.592Z,978.27
2018-07-07T01:10:12.588Z,978.27
2018-07-07T01:11:12.584Z,978.29
2018-07-07T01:12:12.575Z,978.28
2018-07-07T01:13:12.597Z,978.34
2018-07-07T01:14:12.568Z,978.29
2018-07-07T01:15:12.567Z,978.29
2018-07-07T01:16:12.573Z,978.26
2018-07-07T01:17:12.564Z,978.26
2018-07-07T01:18:12.704Z,978.30
2018-07-07T01:19:12.549Z,978.26
2018-07-07T01:20:12.556Z,978.24
2018-07-07T01:21:12.546Z,978.23
2018-07-07T01:22:12.539Z,978.26
2018-07-07T01:23:12.542Z,978.23
2018-07-07T01:24:12.532Z,978.22
2018-07-07T01:25:12.528Z,978.21
2018-07-07T01:26:12.523Z,978.21
2018-07-07T01:27:12.522Z,978.20
2018-07-07T01:28:12.518Z,978.19
2018-07-07T01:29:12.509Z,978.17
2018-07-07T01:30:12.509Z,978.16
2018-07-07T01:31:12.510Z,978.16
2018-07-07T01:32:12.498Z,978.15
2018-07-07T01:33:12.502Z,978.12
2018-07-07T01:34:12.500Z,978.14
2018-07-07T01:35:12.487Z,978.09
2018-07-07T01:36:12.488Z,978.12
2018-07-07T01:37:12.483Z,978.10
2018-07-07T01:38:12.480Z,978.11
2018-07-07T01:39:12.474Z,978.14
2018-07-07T01:40:12.477Z,978.15
2018-07-07T01:41:12.467Z,978.13
2018-07-07T01:42:12.467Z,978.19
2018-07-07T01:43:12.466Z,978.21
2018-07-07T01:44:12.460Z,978.21
2018-07-07T01:45:12.455Z,978.27
2018-07-07T01:46:12.447Z,978.30
2018-07-07T01:47:12.444Z,978.35
2018-07-07T01:48:12.449Z,978.35
2018-07-07T01:49:12.440Z,978.33
2018-07-07T01:50:12.433Z,978.35
2018-07-07T01:51:12.438Z,978.34
2018-07-07T01:52:12.423Z,978.30
2018-07-07T01:53:12.435Z,978.29
2018-07-07T01:54:12.417Z,978.22
2018-07-07T01:55:12.413Z,978.20
2018-07-07T01:56:12.417Z,978.22
2018-07-07T01:57:12.404Z,978.22
2018-07-07T01:58:12.416Z,978.20
2018-07-07T01:59:12.400Z,978.21
2018-07-07T02:00:12.395Z,978.22
2018-07-07T02:01:12.389Z,978.25
2018-07-07T02:02:12.386Z,978.26
2018-07-07T02:03:12.387Z,978.31
2018-07-07T02:04:12.379Z,978.25
2018-07-07T02:05:12.373Z,978.30
2018-07-07T02:06:12.373Z,978.28
2018-07-07T02:07:12.371Z,978.27
2018-07-07T02:08:12.364Z,978.28
2018-07-07T02:09:12.359Z,978.30
2018-07-07T02:10:12.370Z,978.26
2018-07-07T02:11:12.358Z,978.26
2018-07-07T02:12:12.353Z,978.24
2018-07-07T02:13:12.349Z,978.25
2018-07-07T02:14:12.341Z,978.31
2018-07-07T02:15:12.335Z,978.27
2018-07-07T02:16:12.341Z,978.30
2018-07-07T02:17:12.337Z,978.33
2018-07-07T02:18:12.339Z,978.28
2018-07-07T02:19:12.319Z,978.31
2018-07-07T02:20:12.316Z,978.32
2018-07-07T02:21:12.313Z,978.33
2018-07-07T02:22:12.309Z,978.35
2018-07-07T02:23:12.308Z,978.33
2018-07-07T02:24:12.300Z,978.33
2018-07-07T02:25:12.304Z,978.31
2018-07-07T02:26:12.302Z,978.30
2018-07-07T02:27:12.288Z,978.27
2018-07-07T02:28:12.285Z,978.26
2018-07-07T02:29:12.280Z,978.28
2018-07-07T02:30:12.275Z,978.28
2018-07-07T02:31:12.279Z,978.24
2018-07-07T02:32:12.268Z,978.24
2018-07-07T02:33:12.279Z,978.24
2018-07-07T02:34:12.271Z,978.23
2018-07-07T02:35:12.261Z,978.21
2018-07-07T02:36:12.262Z,978.28
2018-07-07T02:37:12.263Z,978.26
2018-07-07T02:38:12.251Z,978.28
2018-07-07T02:39:12.444Z,978.22
2018-07-07T02:40:12.245Z,978.23
2018-07-07T02:41:12.233Z,978.26
2018-07-07T02:42:12.229Z,978.26
2018-07-07T02:43:12.224Z,978.23
2018-07-07T02:44:12.230Z,978.21
2018-07-07T02:45:12.217Z,978.20
2018-07-07T02:46:12.216Z,978.19
2018-07-07T02:47:12.218Z,978.20
2018-07-07T02:48:12.207Z,978.24
2018-07-07T02:49:12.206Z,978.24
2018-07-07T02:50:12.210Z,978.25
2018-07-07T02:51:12.205Z,978.23
2018-07-07T02:52:12.191Z,978.21
2018-07-07T02:53:12.189Z,978.21
2018-07-07T02:54:12.183Z,978.21
2018-07-07T02:55:12.179Z,978.19
2018-07-07T02:56:12.174Z,978.18
2018-07-07T02:57:12.169Z,978.19
2018-07-07T02:58:12.167Z,978.20
2018-07-07T02:59:12.178Z,978.16
2018-07-07T03:00:12.157Z,978.16
2018-07-07T03:01:12.159Z,978.15
2018-07-07T03:02:12.148Z,978.21
2018-07-07T03:03:12.165Z,978.18
2018-07-07T03:04:12.148Z,978.18
2018-07-07T03:05:12.140Z,978.21
2018-07-07T03:06:12.138Z,978.18
2018-07-07T03:07:12.144Z,978.24
2018-07-07T03:08:12.136Z,978.23
2018-07-07T03:09:12.139Z,978.21
2018-07-07T03:10:12.123Z,978.21
2018-07-07T03:11:12.198Z,978.21
2018-07-07T03:12:12.121Z,978.23
2018-07-07T03:13:12.123Z,978.25
2018-07-07T03:14:12.112Z,978.27
2018-07-07T03:15:12.101Z,978.21
2018-07-07T03:16:12.095Z,978.23
2018-07-07T03:17:12.092Z,978.22
2018-07-07T03:18:12.090Z,978.26
2018-07-07T03:19:12.100Z,978.24
2018-07-07T03:20:12.084Z,978.24
2018-07-07T03:21:12.076Z,978.25
2018-07-07T03:22:12.074Z,978.25
2018-07-07T03:23:12.072Z,978.24
2018-07-07T03:24:12.077Z,978.24
2018-07-07T03:25:12.065Z,978.25
2018-07-07T03:26:12.067Z,978.26
2018-07-07T03:27:12.066Z,978.27
2018-07-07T03:28:12.050Z,978.30
2018-07-07T03:29:12.062Z,978.26
2018-07-07T03:30:12.050Z,978.25
2018-07-07T03:31:12.113Z,978.24
2018-07-07T03:32:12.049Z,978.28
2018-07-07T03:33:12.038Z,978.24
2018-07-07T03:34:12.034Z,978.27
2018-07-07T03:35:12.087Z,978.30
2018-07-07T03:36:12.019Z,978.28
2018-07-07T03:37:12.017Z,978.31
2018-07-07T03:38:12.015Z,978.33
2018-07-07T03:39:12.015Z,978.31
2018-07-07T03:40:12.010Z,978.33
2018-07-07T03:41:12.001Z,978.31
2018-07-07T03:42:12.026Z,978.36
2018-07-07T03:43:11.996Z,978.35
2018-07-07T03:44:11.990Z,978.37
2018-07-07T03:45:12.051Z,978.36
2018-07-07T03:46:11.983Z,978.36
2018-07-07T03:47:11.992Z,978.37
2018-07-07T03:48:11.975Z,978.35
2018-07-07T03:49:12.029Z,978.32
2018-07-07T03:50:11.974Z,978.40
2018-07-07T03:51:11.974Z,978.38
2018-07-07T03:52:11.972Z,978.37
2018-07-07T03:53:11.960Z,978.36
2018-07-07T03:54:11.953Z,978.38
2018-07-07T03:55:11.957Z,978.36
2018-07-07T03:56:11.953Z,978.39
2018-07-07T03:57:11.959Z,978.38
2018-07-07T03:58:12.018Z,978.39
2018-07-07T03:59:11.949Z,978.39
2018-07-07T04:00:11.939Z,978.42
2018-07-07T04:01:11.926Z,978.39
2018-07-07T04:02:11.948Z,978.42
2018-07-07T04:03:11.923Z,978.43
2018-07-07T04:04:11.915Z,978.44
2018-07-07T04:05:11.913Z,978.40
2018-07-07T04:06:11.911Z,978.40
2018-07-07T04:07:11.951Z,978.37
2018-07-07T04:08:11.901Z,978.39
2018-07-07T04:09:11.905Z,978.40
2018-07-07T04:10:11.904Z,978.41
2018-07-07T04:11:11.903Z,978.42
2018-07-07T04:12:11.892Z,978.43
2018-07-07T04:13:11.895Z,978.45
2018-07-07T04:14:11.878Z,978.42
2018-07-07T04:15:11.877Z,978.42
2018-07-07T04:16:11.882Z,978.35
2018-07-07T04:17:11.868Z,978.41
2018-07-07T04:18:11.867Z,978.40
2018-07-07T04:19:11.861Z,978.40
2018-07-07T04:20:11.905Z,978.38
2018-07-07T04:21:11.854Z,978.37
2018-07-07T04:22:11.849Z,978.36
2018-07-07T04:23:11.844Z,978.34
2018-07-07T04:24:11.842Z,978.38
2018-07-07T04:25:11.844Z,978.35
2018-07-07T04:26:11.848Z,978.38
2018-07-07T04:27:11.844Z,978.36
2018-07-07T04:28:11.826Z,978.41
2018-07-07T04:29:11.824Z,978.39
2018-07-07T04:30:11.820Z,978.41
2018-07-07T04:31:11.824Z,978.42
2018-07-07T04:32:11.823Z,978.40
2018-07-07T04:33:11.806Z,978.40
2018-07-07T04:34:11.811Z,978.40
2018-07-07T04:35:11.800Z,978.40
2018-07-07T04:36:11.795Z,978.43
2018-07-07T04:37:11.791Z,978.42
2018-07-07T04:38:11.795Z,978.43
2018-07-07T04:39:11.797Z,978.44
2018-07-07T04:40:11.781Z,978.42
2018-07-07T04:41:11.790Z,978.44
2018-07-07T04:42:11.774Z,978.47
2018-07-07T04:43:11.769Z,978.45
2018-07-07T04:44:11.766Z,978.45
2018-07-07T04:45:11.762Z,978.43
2018-07-07T04:46:11.760Z,978.52
2018-07-07T04:47:11.768Z,978.52
2018-07-07T04:48:11.750Z,978.57
2018-07-07T04:49:11.750Z,978.55
2018-07-07T04:50:11.742Z,978.55
2018-07-07T04:51:11.745Z,978.49
2018-07-07T04:52:11.733Z,978.52
2018-07-07T04:53:11.730Z,978.50
2018-07-07T04:54:11.731Z,978.46
2018-07-07T04:55:11.800Z,978.51
2018-07-07T04:56:11.724Z,978.46
2018-07-07T04:57:11.714Z,978.51
2018-07-07T04:58:11.712Z,978.46
2018-07-07T04:59:11.753Z,978.51
2018-07-07T05:00:11.708Z,978.53
2018-07-07T05:01:11.701Z,978.49
2018-07-07T05:02:11.782Z,978.53
2018-07-07T05:03:11.737Z,978.53
2018-07-07T05:04:11.695Z,978.56
2018-07-07T05:05:11.687Z,978.58
2018-07-07T05:06:11.703Z,978.57
2018-07-07T05:07:11.679Z,978.54
2018-07-07T05:08:11.677Z,978.58
2018-07-07T05:09:11.716Z,978.55
2018-07-07T05:10:11.672Z,978.57
2018-07-07T05:11:11.662Z,978.59
2018-07-07T05:12:11.722Z,978.60
2018-07-07T05:13:11.651Z,978.59
2018-07-07T05:14:11.651Z,978.59
2018-07-07T05:15:11.640Z,978.55
2018-07-07T05:16:11.647Z,978.55
2018-07-07T05:17:11.709Z,978.58
2018-07-07T05:18:11.631Z,978.58
2018-07-07T05:19:11.629Z,978.58
2018-07-07T05:20:11.623Z,978.60
2018-07-07T05:21:11.621Z,978.58
2018-07-07T05:22:11.687Z,978.59
2018-07-07T05:23:11.620Z,978.61
2018-07-07T05:24:11.614Z,978.62
2018-07-07T05:25:11.619Z,978.64
2018-07-07T05:26:11.611Z,978.60
2018-07-07T05:27:11.601Z,978.62
2018-07-07T05:28:11.605Z,978.64
2018-07-07T05:29:11.591Z,978.69
2018-07-07T05:30:11.596Z,978.67
2018-07-07T05:31:11.581Z,978.62
2018-07-07T05:32:11.665Z,978.65
2018-07-07T05:33:11.575Z,978.63
2018-07-07T05:34:11.573Z,978.63
2018-07-07T05:35:11.569Z,978.65
2018-07-07T05:36:11.578Z,978.63
2018-07-07T05:37:11.603Z,978.68
2018-07-07T05:38:11.563Z,978.64
2018-07-07T05:39:11.559Z,978.66
2018-07-07T05:40:11.551Z,978.67
2018-07-07T05:41:11.549Z,978.67
2018-07-07T05:42:11.554Z,978.70
2018-07-07T05:43:11.555Z,978.69
2018-07-07T05:44:11.539Z,978.73
2018-07-07T05:45:11.543Z,978.71
2018-07-07T05:46:11.532Z,978.72
2018-07-07T05:47:11.528Z,978.74
2018-07-07T05:48:11.522Z,978.75
2018-07-07T05:49:11.521Z,978.76
2018-07-07T05:50:11.515Z,978.79
2018-07-07T05:51:11.518Z,978.81
2018-07-07T05:52:11.506Z,978.78
2018-07-07T05:53:11.515Z,978.82
2018-07-07T05:54:11.511Z,978.79
2018-07-07T05:55:11.498Z,978.84
2018-07-07T05:56:11.500Z,978.80
2018-07-07T05:57:11.496Z,978.83
2018-07-07T05:58:11.490Z,978.82
2018-07-07T05:59:11.491Z,978.83
2018-07-07T06:00:11.495Z,978.85
2018-07-07T06:01:11.487Z,978.82
2018-07-07T06:02:11.481Z,978.85
2018-07-07T06:03:11.482Z,978.90
2018-07-07T06:04:11.477Z,978.86
2018-07-07T06:05:11.466Z,978.82
2018-07-07T06:06:11.468Z,978.84
2018-07-07T06:07:11.459Z,978.82
2018-07-07T06:08:11.455Z,978.80
2018-07-07T06:09:11.453Z,978.86
2018-07-07T06:10:11.454Z,978.86
2018-07-07T06:11:11.443Z,978.88
2018-07-07T06:12:11.449Z,978.92
2018-07-07T06:13:11.444Z,978.91
2018-07-07T06:14:11.442Z,978.91
2018-07-07T06:15:11.432Z,978.87
2018-07-07T06:16:11.439Z,978.89
2018-07-07T06:17:11.432Z,978.93
2018-07-07T06:18:11.429Z,978.89
2018-07-07T06:19:11.437Z,978.90
2018-07-07T06:20:11.422Z,978.91
2018-07-07T06:21:11.414Z,978.92
2018-07-07T06:22:11.412Z,978.91
2018-07-07T06:23:11.410Z,978.94
2018-07-07T06:24:11.413Z,978.97
2018-07-07T06:25:11.412Z,978.97
2018-07-07T06:26:11.404Z,978.93
2018-07-07T06:27:11.396Z,978.94
2018-07-07T06:28:11.393Z,978.93
2018-07-07T06:29:11.398Z,978.94
2018-07-07T06:30:11.394Z,978.96
2018-07-07T06:31:11.384Z,978.94
2018-07-07T06:32:11.385Z,978.93
2018-07-07T06:33:11.388Z,978.94
2018-07-07T06:34:11.376Z,978.90
2018-07-07T06:35:11.370Z,978.95
2018-07-07T06:36:11.373Z,978.92
2018-07-07T06:37:11.374Z,978.93
2018-07-07T06:38:11.375Z,978.95
2018-07-07T06:39:11.359Z,978.93
2018-07-07T06:40:11.357Z,978.94
2018-07-07T06:41:11.357Z,978.93
2018-07-07T06:42:11.353Z,978.90
2018-07-07T06:43:11.354Z,978.93
2018-07-07T06:44:11.345Z,978.92
2018-07-07T06:45:11.342Z,978.95
2018-07-07T06:46:11.337Z,978.96
2018-07-07T06:47:11.337Z,978.97
2018-07-07T06:48:11.333Z,978.95
2018-07-07T06:49:11.329Z,979.00
2018-07-07T06:50:11.333Z,978.97
2018-07-07T06:51:11.333Z,978.94
2018-07-07T06:52:11.326Z,978.97
2018-07-07T06:53:11.318Z,978.96
2018-07-07T06:54:11.317Z,978.93
2018-07-07T06:55:11.327Z,978.97
2018-07-07T06:56:11.316Z,978.96
2018-07-07T06:57:11.306Z,978.90
2018-07-07T06:58:11.313Z,978.94
2018-07-07T06:59:11.309Z,979.00
2018-07-07T07:00:11.301Z,978.98
2018-07-07T07:01:11.298Z,978.99
2018-07-07T07:02:11.299Z,979.02
2018-07-07T07:03:11.291Z,979.00
2018-07-07T07:04:11.299Z,979.05
2018-07-07T07:05:11.288Z,979.06
2018-07-07T07:06:11.294Z,979.05
2018-07-07T07:07:11.289Z,979.03
2018-07-07T07:08:11.291Z,979.02
2018-07-07T07:09:11.279Z,979.06
2018-07-07T07:10:11.279Z,979.12
2018-07-07T07:11:11.281Z,979.09
2018-07-07T07:12:11.277Z,979.11
2018-07-07T07:13:11.272Z,979.10
2018-07-07T07:14:11.279Z,979.10
2018-07-07T07:15:11.272Z,979.08
2018-07-07T07:16:11.276Z,979.06
2018-07-07T07:17:11.266Z,979.07
2018-07-07T07:18:11.264Z,979.04
2018-07-07T07:19:11.270Z,979.06
2018-07-07T07:20:11.265Z,979.07
2018-07-07T07:21:11.267Z,979.08
2018-07-07T07:22:11.258Z,979.06
2018-07-07T07:23:11.261Z,979.05
2018-07-07T07:24:11.252Z,979.03
2018-07-07T07:25:11.252Z,979.01
2018-07-07T07:26:11.374Z,979.02
2018-07-07T07:27:11.255Z,979.02
2018-07-07T07:28:11.249Z,979.01
2018-07-07T07:29:11.250Z,979.05
2018-07-07T07:30:11.251Z,979.03
2018-07-07T07:31:11.250Z,979.08
2018-07-07T07:32:11.289Z,979.04
2018-07-07T07:33:11.245Z,979.06
2018-07-07T07:34:11.241Z,979.01
2018-07-07T07:35:11.238Z,979.04
2018-07-07T07:36:11.239Z,978.99
2018-07-07T07:37:11.244Z,979.00
2018-07-07T07:38:11.236Z,978.97
2018-07-07T07:39:11.250Z,979.01
2018-07-07T07:40:11.238Z,978.97
2018-07-07T07:41:11.234Z,978.96
2018-07-07T07:42:11.247Z,978.94
2018-07-07T07:43:11.261Z,979.00
2018-07-07T07:44:11.233Z,978.95
2018-07-07T07:45:11.232Z,978.98
2018-07-07T07:46:11.228Z,978.98
2018-07-07T07:47:11.237Z,978.96
2018-07-07T07:48:11.226Z,979.00
2018-07-07T07:49:11.226Z,979.00
2018-07-07T07:50:11.226Z,979.00
2018-07-07T07:51:11.226Z,978.95
2018-07-07T07:52:11.229Z,978.97
2018-07-07T07:53:11.228Z,978.97
2018-07-07T07:54:11.228Z,978.99
2018-07-07T07:55:11.224Z,978.99
2018-07-07T07:56:11.229Z,979.01
2018-07-07T07:57:11.221Z,979.00
2018-07-07T07:58:11.228Z,979.04
2018-07-07T07:59:11.224Z,978.98
2018-07-07T08:00:11.223Z,979.01
2018-07-07T08:01:11.227Z,979.01
2018-07-07T08:02:11.218Z,979.01
2018-07-07T08:03:11.227Z,979.00
2018-07-07T08:04:11.218Z,979.03
2018-07-07T08:05:11.230Z,978.99
2018-07-07T08:06:11.219Z,978.99
2018-07-07T08:07:11.228Z,978.98
2018-07-07T08:08:11.226Z,978.99
2018-07-07T08:09:11.216Z,979.00
2018-07-07T08:10:11.222Z,979.01
2018-07-07T08:11:11.218Z,978.98
2018-07-07T08:12:11.232Z,979.00
2018-07-07T08:13:11.226Z,979.00
2018-07-07T08:14:11.241Z,978.94
2018-07-07T08:15:11.217Z,979.00
2018-07-07T08:16:11.216Z,978.94
2018-07-07T08:17:11.224Z,978.94
2018-07-07T08:18:11.220Z,978.96
2018-07-07T08:19:11.218Z,978.94
2018-07-07T08:20:11.220Z,978.98
2018-07-07T08:21:11.226Z,978.95
2018-07-07T08:22:11.216Z,978.94
2018-07-07T08:23:11.221Z,978.89
2018-07-07T08:24:11.229Z,978.95
2018-07-07T08:25:11.218Z,978.93
2018-07-07T08:26:11.218Z,978.92
2018-07-07T08:27:11.218Z,978.96
2018-07-07T08:28:11.216Z,978.93
2018-07-07T08:29:11.228Z,978.94
2018-07-07T08:30:11.233Z,978.91
2018-07-07T08:31:11.222Z,978.91
2018-07-07T08:32:11.219Z,978.92
2018-07-07T08:33:11.223Z,978.94
2018-07-07T08:34:11.217Z,978.94
2018-07-07T08:35:11.217Z,978.94
2018-07-07T08:36:11.218Z,978.91
2018-07-07T08:37:11.217Z,978.96
2018-07-07T08:38:11.218Z,978.97
2018-07-07T08:39:11.218Z,978.94
2018-07-07T08:40:11.217Z,978.91
2018-07-07T08:41:11.226Z,978.94
2018-07-07T08:42:11.309Z,978.94
2018-07-07T08:43:11.255Z,978.91
2018-07-07T08:44:11.218Z,978.95
2018-07-07T08:45:11.216Z,978.88
2018-07-07T08:46:11.223Z,978.93
2018-07-07T08:47:11.220Z,978.93
2018-07-07T08:48:11.216Z,978.94
2018-07-07T08:49:11.226Z,978.92
2018-07-07T08:50:11.222Z,978.94
2018-07-07T08:51:11.216Z,978.94
2018-07-07T08:52:11.216Z,978.92
2018-07-07T08:53:11.221Z,978.91
2018-07-07T08:54:11.216Z,978.91
2018-07-07T08:55:11.220Z,978.91
2018-07-07T08:56:11.246Z,978.92
2018-07-07T08:57:11.217Z,978.90
2018-07-07T08:58:11.218Z,978.93
2018-07-07T08:59:11.261Z,978.84
2018-07-07T09:00:11.226Z,978.91
2018-07-07T09:01:11.224Z,978.89
2018-07-07T09:02:11.282Z,978.86
2018-07-07T09:03:11.218Z,978.82
2018-07-07T09:04:11.219Z,978.84
2018-07-07T09:05:11.228Z,978.86
2018-07-07T09:06:11.233Z,978.88
2018-07-07T09:07:11.222Z,978.78
2018-07-07T09:08:11.219Z,978.73
2018-07-07T09:09:11.221Z,978.79
2018-07-07T09:10:11.224Z,978.79
2018-07-07T09:11:11.222Z,978.80
2018-07-07T09:12:11.251Z,978.80
2018-07-07T09:13:11.220Z,978.77
2018-07-07T09:14:11.261Z,978.79
2018-07-07T09:15:11.223Z,978.75
2018-07-07T09:16:11.227Z,978.74
2018-07-07T09:17:11.234Z,978.73
2018-07-07T09:18:11.224Z,978.70
2018-07-07T09:19:11.227Z,978.72
2018-07-07T09:20:11.238Z,978.70
2018-07-07T09:21:11.266Z,978.75
2018-07-07T09:22:11.234Z,978.76
2018-07-07T09:23:11.228Z,978.71
2018-07-07T09:24:11.237Z,978.70
2018-07-07T09:25:11.264Z,978.70
2018-07-07T09:26:11.239Z,978.72
2018-07-07T09:27:11.232Z,978.70
2018-07-07T09:28:11.260Z,978.67
2018-07-07T09:29:11.234Z,978.70
2018-07-07T09:30:11.235Z,978.72
2018-07-07T09:31:11.240Z,978.69
2018-07-07T09:32:11.239Z,978.69
2018-07-07T09:33:11.238Z,978.71
2018-07-07T09:34:11.243Z,978.69
2018-07-07T09:35:11.245Z,978.69
2018-07-07T09:36:11.250Z,978.68
2018-07-07T09:37:11.242Z,978.65
2018-07-07T09:38:11.246Z,978.63
2018-07-07T09:39:11.245Z,978.62
2018-07-07T09:40:11.303Z,978.60
2018-07-07T09:41:11.250Z,978.60
2018-07-07T09:42:11.256Z,978.60
2018-07-07T09:43:11.267Z,978.61
2018-07-07T09:44:11.270Z,978.62
2018-07-07T09:45:11.268Z,978.59
2018-07-07T09:46:11.258Z,978.63
2018-07-07T09:47:11.258Z,978.68
2018-07-07T09:48:11.259Z,978.63
2018-07-07T09:49:11.262Z,978.65
2018-07-07T09:50:11.261Z,978.54
2018-07-07T09:51:11.264Z,978.54
2018-07-07T09:52:11.277Z,978.58
2018-07-07T09:53:11.272Z,978.58
2018-07-07T09:54:11.273Z,978.58
2018-07-07T09:55:11.272Z,978.64
2018-07-07T09:56:11.287Z,978.59
2018-07-07T09:57:11.278Z,978.57
2018-07-07T09:58:11.274Z,978.55
2018-07-07T09:59:11.284Z,978.62
2018-07-07T10:00:11.290Z,978.60
2018-07-07T10:01:11.285Z,978.61
2018-07-07T10:02:11.280Z,978.65
2018-07-07T10:03:11.282Z,978.58
2018-07-07T10:04:11.283Z,978.54
2018-07-07T10:05:11.295Z,978.53
2018-07-07T10:06:11.287Z,978.55
2018-07-07T10:07:11.297Z,978.54
2018-07-07T10:08:11.288Z,978.53
2018-07-07T10:09:11.289Z,978.51
2018-07-07T10:10:11.298Z,978.51
2018-07-07T10:11:11.302Z,978.50
2018-07-07T10:12:11.301Z,978.55
2018-07-07T10:13:11.306Z,978.49
2018-07-07T10:14:11.305Z,978.52
2018-07-07T10:15:11.307Z,978.52
2018-07-07T10:16:11.300Z,978.57
2018-07-07T10:17:11.310Z,978.60
2018-07-07T10:18:11.306Z,978.55
2018-07-07T10:19:11.306Z,978.61
2018-07-07T10:20:11.309Z,978.50
2018-07-07T10:21:11.310Z,978.49
2018-07-07T10:22:11.312Z,978.53
2018-07-07T10:23:11.319Z,978.49
2018-07-07T10:24:11.322Z,978.53
2018-07-07T10:25:11.316Z,978.53
2018-07-07T10:26:11.351Z,978.50
2018-07-07T10:27:11.327Z,978.46
2018-07-07T10:28:11.319Z,978.55
2018-07-07T10:29:11.323Z,978.55
2018-07-07T10:30:11.348Z,978.48
2018-07-07T10:31:11.338Z,978.55
2018-07-07T10:32:11.330Z,978.51
2018-07-07T10:33:11.334Z,978.55
2018-07-07T10:34:11.330Z,978.48
2018-07-07T10:35:11.333Z,978.50
2018-07-07T10:36:11.348Z,978.45
2018-07-07T10:37:11.338Z,978.53
2018-07-07T10:38:11.366Z,978.48
2018-07-07T10:39:11.340Z,978.51
2018-07-07T10:40:11.341Z,978.52
2018-07-07T10:41:11.343Z,978.52
2018-07-07T10:42:11.345Z,978.51
2018-07-07T10:43:11.347Z,978.48
2018-07-07T10:44:11.354Z,978.51
2018-07-07T10:45:11.348Z,978.45
2018-07-07T10:46:11.399Z,978.46
2018-07-07T10:47:11.360Z,978.42
2018-07-07T10:48:11.354Z,978.51
2018-07-07T10:49:11.358Z,978.45
2018-07-07T10:50:11.370Z,978.45
2018-07-07T10:51:11.365Z,978.42
2018-07-07T10:52:11.360Z,978.40
2018-07-07T10:53:11.363Z,978.45
2018-07-07T10:54:11.370Z,978.45
2018-07-07T10:55:11.367Z,978.50
2018-07-07T10:56:11.377Z,978.48
2018-07-07T10:57:11.372Z,978.44
2018-07-07T10:58:11.378Z,978.46
2018-07-07T10:59:11.379Z,978.45
2018-07-07T11:00:11.376Z,978.43
2018-07-07T11:01:11.377Z,978.45
2018-07-07T11:02:11.378Z,978.50
2018-07-07T11:03:11.380Z,978.44
2018-07-07T11:04:11.442Z,978.41
2018-07-07T11:05:11.382Z,978.40
2018-07-07T11:06:11.391Z,978.41
2018-07-07T11:07:11.389Z,978.39
2018-07-07T11:08:11.388Z,978.34
2018-07-07T11:09:11.397Z,978.38
2018-07-07T11:10:11.391Z,978.34
2018-07-07T11:11:11.406Z,978.37
2018-07-07T11:12:11.479Z,978.36
2018-07-07T11:13:11.399Z,978.32
2018-07-07T11:14:11.405Z,978.33
2018-07-07T11:15:11.406Z,978.29
2018-07-07T11:16:11.412Z,978.25
2018-07-07T11:17:11.406Z,978.30
2018-07-07T11:18:11.408Z,978.26
2018-07-07T11:19:11.411Z,978.30
2018-07-07T11:20:11.420Z,978.31
2018-07-07T11:21:11.412Z,978.24
2018-07-07T11:22:11.417Z,978.24
2018-07-07T11:23:11.422Z,978.25
2018-07-07T11:24:11.423Z,978.26
2018-07-07T11:25:11.420Z,978.25
2018-07-07T11:26:11.421Z,978.25
2018-07-07T11:27:11.424Z,978.23
2018-07-07T11:28:11.426Z,978.24
2018-07-07T11:29:11.427Z,978.25
2018-07-07T11:30:11.429Z,978.25
2018-07-07T11:31:11.439Z,978.28
2018-07-07T11:32:11.431Z,978.27
2018-07-07T11:33:11.434Z,978.31
2018-07-07T11:34:11.435Z,978.27
2018-07-07T11:35:11.441Z,978.24
2018-07-07T11:36:11.453Z,978.29
2018-07-07T11:37:11.441Z,978.28
2018-07-07T11:38:11.445Z,978.22
2018-07-07T11:39:11.452Z,978.31
2018-07-07T11:40:11.449Z,978.29
2018-07-07T11:41:11.458Z,978.28
2018-07-07T11:42:11.453Z,978.24
2018-07-07T11:43:11.456Z,978.22
2018-07-07T11:44:11.460Z,978.29
2018-07-07T11:45:11.459Z,978.31
2018-07-07T11:46:11.461Z,978.27
2018-07-07T11:47:11.472Z,978.31
2018-07-07T11:48:11.465Z,978.27
2018-07-07T11:49:11.470Z,978.24
2018-07-07T11:50:11.486Z,978.21
2018-07-07T11:51:11.479Z,978.25
2018-07-07T11:52:11.472Z,978.20
2018-07-07T11:53:11.473Z,978.24
2018-07-07T11:54:11.475Z,978.22
2018-07-07T11:55:11.479Z,978.21
2018-07-07T11:56:11.491Z,978.23
2018-07-07T11:57:11.554Z,978.22
2018-07-07T11:58:11.498Z,978.14
2018-07-07T11:59:11.495Z,978.12
2018-07-07T12:00:11.491Z,978.17
2018-07-07T12:01:11.496Z,978.15
2018-07-07T12:02:11.495Z,978.16
2018-07-07T12:03:11.508Z,978.13
2018-07-07T12:04:11.505Z,978.10
2018-07-07T12:05:11.505Z,978.11
2018-07-07T12:06:11.503Z,978.13
2018-07-07T12:07:11.511Z,978.09
2018-07-07T12:08:13.991Z,978.08
2018-07-07T12:09:11.512Z,978.09
2018-07-07T12:10:11.516Z,978.09
2018-07-07T12:11:11.548Z,978.06
2018-07-07T12:12:11.517Z,978.04
2018-07-07T12:13:11.522Z,978.01
2018-07-07T12:14:11.525Z,978.04
2018-07-07T12:15:11.542Z,978.06
2018-07-07T12:16:11.535Z,978.07
2018-07-07T12:17:11.531Z,978.11
2018-07-07T12:18:11.535Z,977.99
2018-07-07T12:19:11.541Z,978.01
2018-07-07T12:20:11.543Z,978.08
2018-07-07T12:21:11.548Z,978.00
2018-07-07T12:22:11.547Z,977.99
2018-07-07T12:23:11.558Z,977.98
2018-07-07T12:24:11.556Z,977.96
2018-07-07T12:25:11.554Z,977.99
2018-07-07T12:26:11.567Z,977.96
2018-07-07T12:27:11.560Z,977.98
2018-07-07T12:28:11.573Z,977.92